sensor_id;sensor_type;location;lat;lon;timestamp;P1;durP1;ratioP1;P2;durP2;ratioP2
14076;SDS011;7114;51.100;13.998;2024-01-15T00:01:33;14.50;;;3.58;;
14076;SDS011;7114;51.100;13.998;2024-01-15T00:03:59;11.77;;;3.45;;
14076;SDS011;7114;51.100;13.998;2024-01-15T00:06:26;12.13;;;4.50;;
14076;SDS011;7114;51.100;13.998;2024-01-15T00:08:53;12.48;;;3.58;;
14076;SDS011;7114;51.100;13.998;2024-01-15T00:11:19;13.60;;;3.83;;
14076;SDS011;7114;51.100;13.998;2024-01-15T00:13:47;10.98;;;3.65;;
14076;SDS011;7114;51.100;13.998;2024-01-15T00:16:13;12.70;;;3.80;;
14076;SDS011;7114;51.100;13.998;2024-01-15T00:18:39;12.52;;;3.67;;
14076;SDS011;7114;51.100;13.998;2024-01-15T00:21:06;11.60;;;4.00;;
14076;SDS011;7114;51.100;13.998;2024-01-15T00:23:32;12.17;;;3.40;;
14076;SDS011;7114;51.100;13.998;2024-01-15T00:25:58;14.07;;;3.92;;
14076;SDS011;7114;51.100;13.998;2024-01-15T00:28:25;12.57;;;3.75;;
14076;SDS011;7114;51.100;13.998;2024-01-15T00:30:53;12.65;;;3.90;;
14076;SDS011;7114;51.100;13.998;2024-01-15T00:33:19;13.25;;;3.80;;
14076;SDS011;7114;51.100;13.998;2024-01-15T00:35:46;12.37;;;3.50;;
14076;SDS011;7114;51.100;13.998;2024-01-15T00:38:12;12.23;;;3.78;;
14076;SDS011;7114;51.100;13.998;2024-01-15T00:40:38;11.60;;;3.63;;
14076;SDS011;7114;51.100;13.998;2024-01-15T00:43:05;12.07;;;3.95;;
14076;SDS011;7114;51.100;13.998;2024-01-15T00:45:32;13.90;;;3.80;;
14076;SDS011;7114;51.100;13.998;2024-01-15T00:48:01;12.27;;;3.87;;
14076;SDS011;7114;51.100;13.998;2024-01-15T00:50:27;12.43;;;3.72;;
14076;SDS011;7114;51.100;13.998;2024-01-15T00:52:54;12.55;;;3.67;;
14076;SDS011;7114;51.100;13.998;2024-01-15T00:55:20;13.23;;;4.03;;
14076;SDS011;7114;51.100;13.998;2024-01-15T00:57:46;13.90;;;4.25;;
14076;SDS011;7114;51.100;13.998;2024-01-15T01:00:14;13.67;;;3.90;;
14076;SDS011;7114;51.100;13.998;2024-01-15T01:02:41;13.18;;;3.63;;
14076;SDS011;7114;51.100;13.998;2024-01-15T01:05:09;12.52;;;4.10;;
14076;SDS011;7114;51.100;13.998;2024-01-15T01:07:35;12.23;;;3.80;;
14076;SDS011;7114;51.100;13.998;2024-01-15T01:10:01;11.48;;;3.70;;
14076;SDS011;7114;51.100;13.998;2024-01-15T01:12:28;12.40;;;3.97;;
14076;SDS011;7114;51.100;13.998;2024-01-15T01:14:54;12.63;;;4.00;;
14076;SDS011;7114;51.100;13.998;2024-01-15T01:17:21;12.70;;;4.07;;
14076;SDS011;7114;51.100;13.998;2024-01-15T01:19:47;12.30;;;3.80;;
14076;SDS011;7114;51.100;13.998;2024-01-15T01:22:15;13.13;;;3.95;;
14076;SDS011;7114;51.100;13.998;2024-01-15T01:24:41;13.83;;;3.93;;
14076;SDS011;7114;51.100;13.998;2024-01-15T01:27:07;12.57;;;3.55;;
14076;SDS011;7114;51.100;13.998;2024-01-15T01:29:33;13.98;;;3.60;;
14076;SDS011;7114;51.100;13.998;2024-01-15T01:32:00;13.23;;;4.03;;
14076;SDS011;7114;51.100;13.998;2024-01-15T01:34:27;15.00;;;3.72;;
14076;SDS011;7114;51.100;13.998;2024-01-15T01:36:53;13.77;;;3.83;;
14076;SDS011;7114;51.100;13.998;2024-01-15T01:39:21;14.43;;;4.50;;
14076;SDS011;7114;51.100;13.998;2024-01-15T01:41:47;12.48;;;3.83;;
14076;SDS011;7114;51.100;13.998;2024-01-15T01:44:14;13.82;;;3.80;;
14076;SDS011;7114;51.100;13.998;2024-01-15T01:46:40;13.40;;;4.72;;
14076;SDS011;7114;51.100;13.998;2024-01-15T01:49:07;12.60;;;3.90;;
14076;SDS011;7114;51.100;13.998;2024-01-15T01:51:33;12.70;;;4.40;;
14076;SDS011;7114;51.100;13.998;2024-01-15T01:54:00;14.23;;;4.43;;
14076;SDS011;7114;51.100;13.998;2024-01-15T01:56:28;15.32;;;4.63;;
14076;SDS011;7114;51.100;13.998;2024-01-15T01:58:55;13.50;;;4.07;;
14076;SDS011;7114;51.100;13.998;2024-01-15T02:01:21;12.57;;;4.13;;
14076;SDS011;7114;51.100;13.998;2024-01-15T02:03:48;14.50;;;4.25;;
14076;SDS011;7114;51.100;13.998;2024-01-15T02:06:14;13.35;;;4.20;;
14076;SDS011;7114;51.100;13.998;2024-01-15T02:08:42;12.25;;;4.00;;
14076;SDS011;7114;51.100;13.998;2024-01-15T02:11:09;13.95;;;4.47;;
14076;SDS011;7114;51.100;13.998;2024-01-15T02:13:37;14.20;;;4.47;;
14076;SDS011;7114;51.100;13.998;2024-01-15T02:16:04;14.25;;;4.10;;
14076;SDS011;7114;51.100;13.998;2024-01-15T02:18:38;14.55;;;4.38;;
14076;SDS011;7114;51.100;13.998;2024-01-15T02:21:08;13.10;;;4.05;;
14076;SDS011;7114;51.100;13.998;2024-01-15T02:23:36;14.68;;;4.38;;
14076;SDS011;7114;51.100;13.998;2024-01-15T02:26:02;13.80;;;4.33;;
14076;SDS011;7114;51.100;13.998;2024-01-15T02:28:29;14.95;;;4.28;;
14076;SDS011;7114;51.100;13.998;2024-01-15T02:30:55;12.93;;;4.05;;
14076;SDS011;7114;51.100;13.998;2024-01-15T02:33:22;13.25;;;4.20;;
14076;SDS011;7114;51.100;13.998;2024-01-15T02:35:48;13.80;;;4.20;;
14076;SDS011;7114;51.100;13.998;2024-01-15T02:38:15;14.97;;;4.13;;
14076;SDS011;7114;51.100;13.998;2024-01-15T02:40:43;14.68;;;4.38;;
14076;SDS011;7114;51.100;13.998;2024-01-15T02:43:09;15.10;;;4.30;;
14076;SDS011;7114;51.100;13.998;2024-01-15T02:45:37;14.77;;;4.72;;
14076;SDS011;7114;51.100;13.998;2024-01-15T02:48:03;12.98;;;4.00;;
14076;SDS011;7114;51.100;13.998;2024-01-15T02:50:30;15.03;;;4.23;;
14076;SDS011;7114;51.100;13.998;2024-01-15T02:52:56;14.07;;;4.47;;
14076;SDS011;7114;51.100;13.998;2024-01-15T02:55:22;13.57;;;4.13;;
14076;SDS011;7114;51.100;13.998;2024-01-15T02:57:50;16.42;;;4.55;;
14076;SDS011;7114;51.100;13.998;2024-01-15T03:00:16;15.25;;;4.70;;
14076;SDS011;7114;51.100;13.998;2024-01-15T03:02:44;16.50;;;5.13;;
14076;SDS011;7114;51.100;13.998;2024-01-15T03:05:10;13.10;;;4.35;;
14076;SDS011;7114;51.100;13.998;2024-01-15T03:07:37;16.83;;;4.57;;
14076;SDS011;7114;51.100;13.998;2024-01-15T03:10:04;15.40;;;4.55;;
14076;SDS011;7114;51.100;13.998;2024-01-15T03:12:31;14.80;;;4.50;;
14076;SDS011;7114;51.100;13.998;2024-01-15T03:14:58;14.10;;;4.30;;
14076;SDS011;7114;51.100;13.998;2024-01-15T03:17:25;15.27;;;4.65;;
14076;SDS011;7114;51.100;13.998;2024-01-15T03:19:51;15.68;;;4.38;;
14076;SDS011;7114;51.100;13.998;2024-01-15T03:22:18;14.02;;;4.43;;
14076;SDS011;7114;51.100;13.998;2024-01-15T03:24:44;14.73;;;4.85;;
14076;SDS011;7114;51.100;13.998;2024-01-15T03:27:10;14.60;;;4.77;;
14076;SDS011;7114;51.100;13.998;2024-01-15T03:29:36;15.60;;;4.38;;
14076;SDS011;7114;51.100;13.998;2024-01-15T03:32:05;13.93;;;4.47;;
14076;SDS011;7114;51.100;13.998;2024-01-15T03:34:31;16.15;;;4.80;;
14076;SDS011;7114;51.100;13.998;2024-01-15T03:36:57;14.50;;;4.97;;
14076;SDS011;7114;51.100;13.998;2024-01-15T03:39:24;15.80;;;4.30;;
14076;SDS011;7114;51.100;13.998;2024-01-15T03:41:51;15.32;;;4.63;;
14076;SDS011;7114;51.100;13.998;2024-01-15T03:44:17;15.82;;;4.95;;
14076;SDS011;7114;51.100;13.998;2024-01-15T03:46:43;17.73;;;5.68;;
14076;SDS011;7114;51.100;13.998;2024-01-15T03:49:11;17.63;;;5.53;;
14076;SDS011;7114;51.100;13.998;2024-01-15T03:51:37;14.63;;;4.80;;
14076;SDS011;7114;51.100;13.998;2024-01-15T03:54:03;14.75;;;4.43;;
14076;SDS011;7114;51.100;13.998;2024-01-15T03:56:30;15.75;;;4.70;;
14076;SDS011;7114;51.100;13.998;2024-01-15T03:58:56;16.88;;;5.10;;
14076;SDS011;7114;51.100;13.998;2024-01-15T04:01:22;18.73;;;5.28;;
14076;SDS011;7114;51.100;13.998;2024-01-15T04:03:49;15.27;;;4.97;;
14076;SDS011;7114;51.100;13.998;2024-01-15T04:06:16;16.08;;;5.05;;
14076;SDS011;7114;51.100;13.998;2024-01-15T04:08:43;15.90;;;5.28;;
14076;SDS011;7114;51.100;13.998;2024-01-15T04:11:09;17.20;;;5.20;;
14076;SDS011;7114;51.100;13.998;2024-01-15T04:13:35;17.83;;;5.80;;
14076;SDS011;7114;51.100;13.998;2024-01-15T04:16:02;16.93;;;5.40;;
14076;SDS011;7114;51.100;13.998;2024-01-15T04:18:28;15.45;;;5.05;;
14076;SDS011;7114;51.100;13.998;2024-01-15T04:20:55;15.93;;;5.35;;
14076;SDS011;7114;51.100;13.998;2024-01-15T04:23:22;18.13;;;5.60;;
14076;SDS011;7114;51.100;13.998;2024-01-15T04:25:48;17.05;;;5.60;;
14076;SDS011;7114;51.100;13.998;2024-01-15T04:28:15;17.57;;;5.30;;
14076;SDS011;7114;51.100;13.998;2024-01-15T04:30:42;16.63;;;5.43;;
14076;SDS011;7114;51.100;13.998;2024-01-15T04:33:08;17.30;;;5.18;;
14076;SDS011;7114;51.100;13.998;2024-01-15T04:35:34;17.17;;;5.65;;
14076;SDS011;7114;51.100;13.998;2024-01-15T04:38:01;18.02;;;5.70;;
14076;SDS011;7114;51.100;13.998;2024-01-15T04:40:29;17.13;;;5.20;;
14076;SDS011;7114;51.100;13.998;2024-01-15T04:42:55;14.43;;;5.07;;
14076;SDS011;7114;51.100;13.998;2024-01-15T04:45:21;18.05;;;4.90;;
14076;SDS011;7114;51.100;13.998;2024-01-15T04:47:53;20.73;;;5.53;;
14076;SDS011;7114;51.100;13.998;2024-01-15T04:50:19;18.52;;;5.38;;
14076;SDS011;7114;51.100;13.998;2024-01-15T04:52:45;17.10;;;4.70;;
14076;SDS011;7114;51.100;13.998;2024-01-15T04:55:12;16.98;;;5.03;;
14076;SDS011;7114;51.100;13.998;2024-01-15T04:57:39;15.93;;;4.88;;
14076;SDS011;7114;51.100;13.998;2024-01-15T05:00:06;18.05;;;5.03;;
14076;SDS011;7114;51.100;13.998;2024-01-15T05:02:33;15.68;;;5.03;;
14076;SDS011;7114;51.100;13.998;2024-01-15T05:04:59;17.60;;;6.00;;
14076;SDS011;7114;51.100;13.998;2024-01-15T05:07:26;16.80;;;4.93;;
14076;SDS011;7114;51.100;13.998;2024-01-15T05:09:52;17.13;;;5.60;;
14076;SDS011;7114;51.100;13.998;2024-01-15T05:12:18;16.63;;;4.90;;
14076;SDS011;7114;51.100;13.998;2024-01-15T05:14:46;16.48;;;5.20;;
14076;SDS011;7114;51.100;13.998;2024-01-15T05:17:12;17.17;;;5.07;;
14076;SDS011;7114;51.100;13.998;2024-01-15T05:19:38;16.40;;;5.13;;
14076;SDS011;7114;51.100;13.998;2024-01-15T05:22:05;19.98;;;5.55;;
14076;SDS011;7114;51.100;13.998;2024-01-15T05:24:31;14.10;;;4.75;;
14076;SDS011;7114;51.100;13.998;2024-01-15T05:26:57;16.95;;;4.90;;
14076;SDS011;7114;51.100;13.998;2024-01-15T05:29:23;17.13;;;4.90;;
14076;SDS011;7114;51.100;13.998;2024-01-15T05:31:51;14.93;;;4.88;;
14076;SDS011;7114;51.100;13.998;2024-01-15T05:34:17;15.80;;;5.30;;
14076;SDS011;7114;51.100;13.998;2024-01-15T05:36:44;14.35;;;4.38;;
14076;SDS011;7114;51.100;13.998;2024-01-15T05:39:12;17.50;;;4.95;;
14076;SDS011;7114;51.100;13.998;2024-01-15T05:41:39;16.23;;;4.27;;
14076;SDS011;7114;51.100;13.998;2024-01-15T05:44:05;13.82;;;4.68;;
14076;SDS011;7114;51.100;13.998;2024-01-15T05:46:31;17.33;;;5.53;;
14076;SDS011;7114;51.100;13.998;2024-01-15T05:48:59;15.63;;;5.13;;
14076;SDS011;7114;51.100;13.998;2024-01-15T05:51:25;17.80;;;5.57;;
14076;SDS011;7114;51.100;13.998;2024-01-15T05:53:51;16.80;;;5.07;;
14076;SDS011;7114;51.100;13.998;2024-01-15T05:56:18;16.48;;;4.80;;
14076;SDS011;7114;51.100;13.998;2024-01-15T05:58:44;16.83;;;5.30;;
14076;SDS011;7114;51.100;13.998;2024-01-15T06:01:11;14.20;;;4.50;;
14076;SDS011;7114;51.100;13.998;2024-01-15T06:03:37;14.15;;;4.60;;
14076;SDS011;7114;51.100;13.998;2024-01-15T06:06:05;16.30;;;4.30;;
14076;SDS011;7114;51.100;13.998;2024-01-15T06:08:31;16.77;;;4.53;;
14076;SDS011;7114;51.100;13.998;2024-01-15T06:10:57;17.35;;;4.63;;
14076;SDS011;7114;51.100;13.998;2024-01-15T06:13:24;16.02;;;4.70;;
14076;SDS011;7114;51.100;13.998;2024-01-15T06:15:50;15.88;;;5.10;;
14076;SDS011;7114;51.100;13.998;2024-01-15T06:18:16;17.20;;;4.80;;
14076;SDS011;7114;51.100;13.998;2024-01-15T06:20:43;13.77;;;4.45;;
14076;SDS011;7114;51.100;13.998;2024-01-15T06:23:11;17.35;;;4.68;;
14076;SDS011;7114;51.100;13.998;2024-01-15T06:25:37;15.57;;;5.22;;
14076;SDS011;7114;51.100;13.998;2024-01-15T06:28:03;14.55;;;4.38;;
14076;SDS011;7114;51.100;13.998;2024-01-15T06:30:30;14.90;;;4.53;;
14076;SDS011;7114;51.100;13.998;2024-01-15T06:32:57;14.05;;;4.28;;
14076;SDS011;7114;51.100;13.998;2024-01-15T06:35:24;14.32;;;4.32;;
14076;SDS011;7114;51.100;13.998;2024-01-15T06:37:50;13.70;;;3.50;;
14076;SDS011;7114;51.100;13.998;2024-01-15T06:40:18;14.93;;;3.80;;
14076;SDS011;7114;51.100;13.998;2024-01-15T06:42:45;16.17;;;4.57;;
14076;SDS011;7114;51.100;13.998;2024-01-15T06:45:12;13.43;;;4.15;;
14076;SDS011;7114;51.100;13.998;2024-01-15T06:47:38;14.02;;;4.25;;
14076;SDS011;7114;51.100;13.998;2024-01-15T06:50:05;12.10;;;3.47;;
14076;SDS011;7114;51.100;13.998;2024-01-15T06:52:32;13.32;;;3.90;;
14076;SDS011;7114;51.100;13.998;2024-01-15T06:54:58;13.47;;;3.97;;
14076;SDS011;7114;51.100;13.998;2024-01-15T06:57:25;12.70;;;3.80;;
14076;SDS011;7114;51.100;13.998;2024-01-15T06:59:52;12.75;;;3.75;;
14076;SDS011;7114;51.100;13.998;2024-01-15T07:02:18;14.93;;;3.97;;
14076;SDS011;7114;51.100;13.998;2024-01-15T07:04:44;14.50;;;3.88;;
14076;SDS011;7114;51.100;13.998;2024-01-15T07:07:10;12.37;;;3.60;;
14076;SDS011;7114;51.100;13.998;2024-01-15T07:09:37;12.15;;;3.33;;
14076;SDS011;7114;51.100;13.998;2024-01-15T07:12:03;11.48;;;3.60;;
14076;SDS011;7114;51.100;13.998;2024-01-15T07:14:31;12.55;;;3.63;;
14076;SDS011;7114;51.100;13.998;2024-01-15T07:16:57;12.88;;;3.65;;
14076;SDS011;7114;51.100;13.998;2024-01-15T07:19:23;14.17;;;3.97;;
14076;SDS011;7114;51.100;13.998;2024-01-15T07:21:50;11.77;;;3.40;;
14076;SDS011;7114;51.100;13.998;2024-01-15T07:24:16;12.55;;;3.72;;
14076;SDS011;7114;51.100;13.998;2024-01-15T07:26:47;13.32;;;3.92;;
14076;SDS011;7114;51.100;13.998;2024-01-15T07:29:14;12.40;;;3.50;;
14076;SDS011;7114;51.100;13.998;2024-01-15T07:31:43;13.97;;;3.37;;
14076;SDS011;7114;51.100;13.998;2024-01-15T07:34:13;12.35;;;3.20;;
14076;SDS011;7114;51.100;13.998;2024-01-15T07:36:40;13.00;;;3.13;;
14076;SDS011;7114;51.100;13.998;2024-01-15T07:39:06;13.75;;;3.55;;
14076;SDS011;7114;51.100;13.998;2024-01-15T07:41:33;11.10;;;3.33;;
14076;SDS011;7114;51.100;13.998;2024-01-15T07:43:59;12.53;;;3.33;;
14076;SDS011;7114;51.100;13.998;2024-01-15T07:46:26;13.90;;;3.30;;
14076;SDS011;7114;51.100;13.998;2024-01-15T07:48:53;12.88;;;3.63;;
14076;SDS011;7114;51.100;13.998;2024-01-15T07:51:21;11.68;;;3.38;;
14076;SDS011;7114;51.100;13.998;2024-01-15T07:53:47;12.57;;;3.58;;
14076;SDS011;7114;51.100;13.998;2024-01-15T07:56:14;14.20;;;3.30;;
14076;SDS011;7114;51.100;13.998;2024-01-15T07:58:40;14.23;;;3.83;;
14076;SDS011;7114;51.100;13.998;2024-01-15T08:01:07;12.15;;;3.33;;
14076;SDS011;7114;51.100;13.998;2024-01-15T08:03:33;18.80;;;4.50;;
14076;SDS011;7114;51.100;13.998;2024-01-15T08:06:01;13.25;;;3.95;;
14076;SDS011;7114;51.100;13.998;2024-01-15T08:08:27;12.23;;;3.23;;
14076;SDS011;7114;51.100;13.998;2024-01-15T08:10:53;10.45;;;3.33;;
14076;SDS011;7114;51.100;13.998;2024-01-15T08:13:20;12.98;;;3.85;;
14076;SDS011;7114;51.100;13.998;2024-01-15T08:15:46;12.38;;;3.58;;
14076;SDS011;7114;51.100;13.998;2024-01-15T08:18:15;12.88;;;4.30;;
14076;SDS011;7114;51.100;13.998;2024-01-15T08:20:41;13.73;;;3.50;;
14076;SDS011;7114;51.100;13.998;2024-01-15T08:23:09;13.02;;;3.90;;
14076;SDS011;7114;51.100;13.998;2024-01-15T08:25:35;10.18;;;3.10;;
14076;SDS011;7114;51.100;13.998;2024-01-15T08:28:02;9.73;;;2.83;;
14076;SDS011;7114;51.100;13.998;2024-01-15T08:30:29;11.80;;;3.20;;
14076;SDS011;7114;51.100;13.998;2024-01-15T08:32:55;14.10;;;3.20;;
14076;SDS011;7114;51.100;13.998;2024-01-15T08:35:22;15.25;;;3.72;;
14076;SDS011;7114;51.100;13.998;2024-01-15T08:37:49;13.38;;;3.35;;
14076;SDS011;7114;51.100;13.998;2024-01-15T08:40:17;14.32;;;3.90;;
14076;SDS011;7114;51.100;13.998;2024-01-15T08:42:43;13.52;;;3.85;;
14076;SDS011;7114;51.100;13.998;2024-01-15T08:45:10;16.50;;;4.17;;
14076;SDS011;7114;51.100;13.998;2024-01-15T08:47:37;13.55;;;3.72;;
14076;SDS011;7114;51.100;13.998;2024-01-15T08:50:04;13.90;;;4.20;;
14076;SDS011;7114;51.100;13.998;2024-01-15T08:52:34;12.52;;;3.67;;
14076;SDS011;7114;51.100;13.998;2024-01-15T08:55:00;10.90;;;3.35;;
14076;SDS011;7114;51.100;13.998;2024-01-15T08:57:28;11.83;;;3.17;;
14076;SDS011;7114;51.100;13.998;2024-01-15T08:59:56;14.60;;;3.75;;
14076;SDS011;7114;51.100;13.998;2024-01-15T09:02:23;11.07;;;3.50;;
14076;SDS011;7114;51.100;13.998;2024-01-15T09:04:49;12.13;;;3.28;;
14076;SDS011;7114;51.100;13.998;2024-01-15T09:07:16;10.90;;;3.00;;
14076;SDS011;7114;51.100;13.998;2024-01-15T09:09:43;9.70;;;3.00;;
14076;SDS011;7114;51.100;13.998;2024-01-15T09:12:09;14.55;;;3.90;;
14076;SDS011;7114;51.100;13.998;2024-01-15T09:14:41;11.50;;;3.20;;
14076;SDS011;7114;51.100;13.998;2024-01-15T09:17:08;10.98;;;3.10;;
14076;SDS011;7114;51.100;13.998;2024-01-15T09:19:34;12.82;;;3.67;;
14076;SDS011;7114;51.100;13.998;2024-01-15T09:22:00;9.53;;;2.97;;
14076;SDS011;7114;51.100;13.998;2024-01-15T09:24:26;10.50;;;3.13;;
14076;SDS011;7114;51.100;13.998;2024-01-15T09:26:53;12.23;;;3.22;;
14076;SDS011;7114;51.100;13.998;2024-01-15T09:29:20;12.55;;;3.10;;
14076;SDS011;7114;51.100;13.998;2024-01-15T09:31:49;11.43;;;3.20;;
14076;SDS011;7114;51.100;13.998;2024-01-15T09:34:16;12.17;;;3.60;;
14076;SDS011;7114;51.100;13.998;2024-01-15T09:36:42;11.80;;;3.35;;
14076;SDS011;7114;51.100;13.998;2024-01-15T09:39:08;11.98;;;3.13;;
14076;SDS011;7114;51.100;13.998;2024-01-15T09:41:36;13.07;;;3.08;;
14076;SDS011;7114;51.100;13.998;2024-01-15T09:44:02;11.65;;;3.17;;
14076;SDS011;7114;51.100;13.998;2024-01-15T09:46:29;9.30;;;2.57;;
14076;SDS011;7114;51.100;13.998;2024-01-15T09:48:57;9.63;;;2.75;;
14076;SDS011;7114;51.100;13.998;2024-01-15T09:51:23;10.02;;;2.78;;
14076;SDS011;7114;51.100;13.998;2024-01-15T09:53:50;10.52;;;2.70;;
14076;SDS011;7114;51.100;13.998;2024-01-15T09:56:17;11.02;;;2.80;;
14076;SDS011;7114;51.100;13.998;2024-01-15T09:58:44;8.40;;;2.40;;
14076;SDS011;7114;51.100;13.998;2024-01-15T10:01:11;11.02;;;3.00;;
14076;SDS011;7114;51.100;13.998;2024-01-15T10:03:37;9.90;;;2.60;;
14076;SDS011;7114;51.100;13.998;2024-01-15T10:06:07;10.40;;;2.70;;
14076;SDS011;7114;51.100;13.998;2024-01-15T10:08:34;10.00;;;2.50;;
14076;SDS011;7114;51.100;13.998;2024-01-15T10:11:02;10.10;;;2.70;;
14076;SDS011;7114;51.100;13.998;2024-01-15T10:13:29;8.05;;;2.28;;
14076;SDS011;7114;51.100;13.998;2024-01-15T10:15:57;10.05;;;2.72;;
14076;SDS011;7114;51.100;13.998;2024-01-15T10:18:24;8.95;;;1.95;;
14076;SDS011;7114;51.100;13.998;2024-01-15T10:20:51;10.75;;;2.85;;
14076;SDS011;7114;51.100;13.998;2024-01-15T10:23:18;9.00;;;2.33;;
14076;SDS011;7114;51.100;13.998;2024-01-15T10:25:46;11.20;;;2.58;;
14076;SDS011;7114;51.100;13.998;2024-01-15T10:28:13;9.88;;;2.63;;
14076;SDS011;7114;51.100;13.998;2024-01-15T10:30:40;11.27;;;2.38;;
14076;SDS011;7114;51.100;13.998;2024-01-15T10:33:06;11.23;;;2.75;;
14076;SDS011;7114;51.100;13.998;2024-01-15T10:35:33;9.87;;;2.50;;
14076;SDS011;7114;51.100;13.998;2024-01-15T10:38:00;11.45;;;2.88;;
14076;SDS011;7114;51.100;13.998;2024-01-15T10:40:28;10.35;;;2.63;;
14076;SDS011;7114;51.100;13.998;2024-01-15T10:42:55;10.98;;;2.88;;
14076;SDS011;7114;51.100;13.998;2024-01-15T10:45:21;9.27;;;2.90;;
14076;SDS011;7114;51.100;13.998;2024-01-15T10:47:48;10.37;;;2.70;;
14076;SDS011;7114;51.100;13.998;2024-01-15T10:50:14;10.30;;;2.78;;
14076;SDS011;7114;51.100;13.998;2024-01-15T10:52:41;8.63;;;2.17;;
14076;SDS011;7114;51.100;13.998;2024-01-15T10:55:09;9.48;;;2.47;;
14076;SDS011;7114;51.100;13.998;2024-01-15T10:57:37;11.35;;;2.78;;
14076;SDS011;7114;51.100;13.998;2024-01-15T11:00:04;12.60;;;3.10;;
14076;SDS011;7114;51.100;13.998;2024-01-15T11:02:31;7.95;;;2.50;;
14076;SDS011;7114;51.100;13.998;2024-01-15T11:04:59;8.60;;;2.55;;
14076;SDS011;7114;51.100;13.998;2024-01-15T11:07:25;8.30;;;2.07;;
14076;SDS011;7114;51.100;13.998;2024-01-15T11:09:52;10.23;;;2.55;;
14076;SDS011;7114;51.100;13.998;2024-01-15T11:12:19;10.02;;;2.50;;
14076;SDS011;7114;51.100;13.998;2024-01-15T11:14:47;10.32;;;2.53;;
14076;SDS011;7114;51.100;13.998;2024-01-15T11:17:14;12.05;;;2.50;;
14076;SDS011;7114;51.100;13.998;2024-01-15T11:19:44;10.37;;;2.23;;
14076;SDS011;7114;51.100;13.998;2024-01-15T11:25:17;10.45;;;2.33;;
14076;SDS011;7114;51.100;13.998;2024-01-15T11:27:45;9.88;;;2.58;;
14076;SDS011;7114;51.100;13.998;2024-01-15T11:30:17;10.20;;;2.78;;
14076;SDS011;7114;51.100;13.998;2024-01-15T11:32:44;9.87;;;2.60;;
14076;SDS011;7114;51.100;13.998;2024-01-15T11:35:12;10.00;;;2.28;;
14076;SDS011;7114;51.100;13.998;2024-01-15T11:37:58;9.70;;;2.60;;
14076;SDS011;7114;51.100;13.998;2024-01-15T11:40:39;9.32;;;2.60;;
14076;SDS011;7114;51.100;13.998;2024-01-15T11:43:07;12.23;;;2.80;;
14076;SDS011;7114;51.100;13.998;2024-01-15T11:45:35;9.10;;;2.27;;
14076;SDS011;7114;51.100;13.998;2024-01-15T11:48:09;10.52;;;2.38;;
14076;SDS011;7114;51.100;13.998;2024-01-15T11:50:36;9.30;;;2.88;;
14076;SDS011;7114;51.100;13.998;2024-01-15T11:53:17;9.77;;;2.50;;
14076;SDS011;7114;51.100;13.998;2024-01-15T11:55:47;11.50;;;2.75;;
14076;SDS011;7114;51.100;13.998;2024-01-15T11:58:17;10.00;;;2.50;;
14076;SDS011;7114;51.100;13.998;2024-01-15T12:00:47;11.07;;;3.30;;
14076;SDS011;7114;51.100;13.998;2024-01-15T12:03:14;13.40;;;3.00;;
14076;SDS011;7114;51.100;13.998;2024-01-15T12:05:40;9.93;;;2.70;;
14076;SDS011;7114;51.100;13.998;2024-01-15T12:08:07;11.48;;;3.10;;
14076;SDS011;7114;51.100;13.998;2024-01-15T12:10:37;10.43;;;2.90;;
14076;SDS011;7114;51.100;13.998;2024-01-15T12:13:05;9.93;;;3.08;;
14076;SDS011;7114;51.100;13.998;2024-01-15T12:15:35;12.40;;;3.03;;
14076;SDS011;7114;51.100;13.998;2024-01-15T12:18:03;13.55;;;2.95;;
14076;SDS011;7114;51.100;13.998;2024-01-15T12:20:29;11.98;;;3.13;;
14076;SDS011;7114;51.100;13.998;2024-01-15T12:22:57;11.23;;;2.87;;
14076;SDS011;7114;51.100;13.998;2024-01-15T12:25:23;9.77;;;2.85;;
14076;SDS011;7114;51.100;13.998;2024-01-15T12:27:52;9.05;;;2.55;;
14076;SDS011;7114;51.100;13.998;2024-01-15T12:30:18;11.55;;;2.55;;
14076;SDS011;7114;51.100;13.998;2024-01-15T12:32:45;9.10;;;2.47;;
14076;SDS011;7114;51.100;13.998;2024-01-15T12:35:13;9.80;;;2.30;;
14076;SDS011;7114;51.100;13.998;2024-01-15T12:37:40;9.95;;;2.35;;
14076;SDS011;7114;51.100;13.998;2024-01-15T12:40:07;11.95;;;3.20;;
14076;SDS011;7114;51.100;13.998;2024-01-15T12:42:35;12.02;;;3.50;;
14076;SDS011;7114;51.100;13.998;2024-01-15T12:45:01;11.43;;;2.67;;
14076;SDS011;7114;51.100;13.998;2024-01-15T12:47:29;12.67;;;3.17;;
14076;SDS011;7114;51.100;13.998;2024-01-15T12:49:55;11.63;;;2.92;;
14076;SDS011;7114;51.100;13.998;2024-01-15T12:52:23;12.63;;;3.38;;
14076;SDS011;7114;51.100;13.998;2024-01-15T12:54:49;12.68;;;3.72;;
14076;SDS011;7114;51.100;13.998;2024-01-15T12:57:16;12.40;;;3.83;;
14076;SDS011;7114;51.100;13.998;2024-01-15T12:59:42;11.43;;;2.87;;
14076;SDS011;7114;51.100;13.998;2024-01-15T13:02:10;10.50;;;2.88;;
14076;SDS011;7114;51.100;13.998;2024-01-15T13:04:36;8.77;;;2.60;;
14076;SDS011;7114;51.100;13.998;2024-01-15T13:07:03;10.93;;;2.72;;
14076;SDS011;7114;51.100;13.998;2024-01-15T13:09:31;11.90;;;2.97;;
14076;SDS011;7114;51.100;13.998;2024-01-15T13:11:58;10.53;;;2.83;;
14076;SDS011;7114;51.100;13.998;2024-01-15T13:14:26;10.57;;;2.78;;
14076;SDS011;7114;51.100;13.998;2024-01-15T13:16:52;11.38;;;3.10;;
14076;SDS011;7114;51.100;13.998;2024-01-15T13:19:19;9.75;;;2.90;;
14076;SDS011;7114;51.100;13.998;2024-01-15T13:21:46;9.63;;;2.40;;
14076;SDS011;7114;51.100;13.998;2024-01-15T13:24:13;10.20;;;2.87;;
14076;SDS011;7114;51.100;13.998;2024-01-15T13:26:41;9.40;;;3.03;;
14076;SDS011;7114;51.100;13.998;2024-01-15T13:29:07;11.30;;;2.90;;
14076;SDS011;7114;51.100;13.998;2024-01-15T13:31:34;12.07;;;2.90;;
14076;SDS011;7114;51.100;13.998;2024-01-15T13:34:00;11.07;;;3.38;;
14076;SDS011;7114;51.100;13.998;2024-01-15T13:36:28;12.13;;;3.70;;
14076;SDS011;7114;51.100;13.998;2024-01-15T13:38:54;10.98;;;3.33;;
14076;SDS011;7114;51.100;13.998;2024-01-15T13:41:21;10.98;;;3.13;;
14076;SDS011;7114;51.100;13.998;2024-01-15T13:43:53;10.60;;;2.90;;
14076;SDS011;7114;51.100;13.998;2024-01-15T13:46:20;10.07;;;2.53;;
14076;SDS011;7114;51.100;13.998;2024-01-15T13:48:48;13.33;;;3.37;;
14076;SDS011;7114;51.100;13.998;2024-01-15T13:51:15;9.32;;;2.58;;
14076;SDS011;7114;51.100;13.998;2024-01-15T13:53:41;11.85;;;2.88;;
14076;SDS011;7114;51.100;13.998;2024-01-15T13:56:08;9.77;;;2.78;;
14076;SDS011;7114;51.100;13.998;2024-01-15T13:58:35;11.65;;;2.95;;
14076;SDS011;7114;51.100;13.998;2024-01-15T14:01:03;12.00;;;2.33;;
14076;SDS011;7114;51.100;13.998;2024-01-15T14:03:30;11.45;;;2.90;;
14076;SDS011;7114;51.100;13.998;2024-01-15T14:05:57;9.93;;;2.72;;
14076;SDS011;7114;51.100;13.998;2024-01-15T14:08:23;13.07;;;3.97;;
14076;SDS011;7114;51.100;13.998;2024-01-15T14:10:50;11.45;;;3.33;;
14076;SDS011;7114;51.100;13.998;2024-01-15T14:13:16;10.70;;;2.57;;
14076;SDS011;7114;51.100;13.998;2024-01-15T14:15:42;11.23;;;2.80;;
14076;SDS011;7114;51.100;13.998;2024-01-15T14:18:10;9.07;;;2.75;;
14076;SDS011;7114;51.100;13.998;2024-01-15T14:20:37;10.85;;;3.05;;
14076;SDS011;7114;51.100;13.998;2024-01-15T14:23:03;11.88;;;3.30;;
14076;SDS011;7114;51.100;13.998;2024-01-15T14:25:29;12.10;;;2.67;;
14076;SDS011;7114;51.100;13.998;2024-01-15T14:27:56;11.45;;;2.70;;
14076;SDS011;7114;51.100;13.998;2024-01-15T14:30:22;10.98;;;3.15;;
14076;SDS011;7114;51.100;13.998;2024-01-15T14:32:48;11.25;;;3.30;;
14076;SDS011;7114;51.100;13.998;2024-01-15T14:35:16;10.68;;;3.20;;
14076;SDS011;7114;51.100;13.998;2024-01-15T14:37:42;9.67;;;2.90;;